createdAt,value
2023-01-21T00:03:44.002Z,89.40
2023-01-21T00:08:46.157Z,89.37
2023-01-21T00:13:48.241Z,89.19
2023-01-21T00:18:50.324Z,89.42
2023-01-21T00:23:52.685Z,89.47
2023-01-21T00:28:54.842Z,89.47
2023-01-21T00:33:56.873Z,89.23
2023-01-21T00:38:59.617Z,89.24
2023-01-21T00:44:01.696Z,89.22
2023-01-21T00:49:03.772Z,89.36
2023-01-21T00:54:05.856Z,89.12
2023-01-21T00:59:08.005Z,89.31
2023-01-21T01:04:12.173Z,89.13
2023-01-21T01:09:14.274Z,89.01
2023-01-21T01:14:16.330Z,89.19
2023-01-21T01:19:18.717Z,89.27
2023-01-21T01:24:21.216Z,89.30
2023-01-21T01:29:23.298Z,89.41
2023-01-21T01:34:25.412Z,89.47
2023-01-21T01:39:27.457Z,89.44
2023-01-21T01:44:56.190Z,89.44
2023-01-21T01:49:59.765Z,89.35
2023-01-21T01:55:04.023Z,89.48
2023-01-21T02:00:09.368Z,89.19
2023-01-21T02:05:11.504Z,89.34
2023-01-21T02:10:15.353Z,89.28
2023-01-21T02:15:17.776Z,89.28
2023-01-21T02:20:34.799Z,89.24
2023-01-21T02:25:55.957Z,89.30
2023-01-21T02:31:16.298Z,89.36
2023-01-21T02:36:33.430Z,89.15
2023-01-21T02:41:47.547Z,89.13
2023-01-21T02:46:59.490Z,89.25
2023-01-21T02:52:01.561Z,89.37
2023-01-21T02:57:04.228Z,89.43
2023-01-21T03:02:15.424Z,89.37
2023-01-21T03:07:51.360Z,89.21
2023-01-21T03:13:03.944Z,89.25
2023-01-21T03:18:22.079Z,89.36
2023-01-21T03:23:30.009Z,89.49
2023-01-21T03:28:36.203Z,89.52
2023-01-21T03:33:45.830Z,89.53
2023-01-21T03:38:51.658Z,89.55
2023-01-21T03:43:53.811Z,89.31
2023-01-21T03:49:02.912Z,89.58
2023-01-21T03:54:05.565Z,89.27
2023-01-21T03:59:07.664Z,89.26
2023-01-21T04:04:10.492Z,89.43
2023-01-21T04:09:12.685Z,89.51
2023-01-21T04:14:14.734Z,89.57
2023-01-21T04:19:16.765Z,89.60
2023-01-21T04:24:18.819Z,89.57
2023-01-21T04:29:21.243Z,89.53
2023-01-21T04:34:23.281Z,89.37
2023-01-21T04:39:25.305Z,89.28
2023-01-21T04:44:27.374Z,89.38
2023-01-21T04:49:29.446Z,89.51
2023-01-21T04:54:31.508Z,89.04
2023-01-21T04:59:33.817Z,89.04
2023-01-21T05:04:35.929Z,89.11
2023-01-21T05:09:38.120Z,89.07
2023-01-21T05:14:40.224Z,89.10
2023-01-21T05:19:42.300Z,89.26
2023-01-21T05:24:44.376Z,89.50
2023-01-21T05:29:46.737Z,89.68
2023-01-21T05:34:48.842Z,89.91
2023-01-21T05:39:50.865Z,90.06
2023-01-21T05:44:52.952Z,90.06
2023-01-21T05:49:54.988Z,90.13
2023-01-21T05:55:02.141Z,90.29
2023-01-21T06:00:05.388Z,90.08
2023-01-21T06:05:07.861Z,90.14
2023-01-21T06:10:10.460Z,90.39
2023-01-21T06:15:13.986Z,90.78
2023-01-21T06:20:16.290Z,90.95
2023-01-21T06:25:18.601Z,90.89
2023-01-21T06:30:20.694Z,90.66
2023-01-21T06:35:23.314Z,90.59
2023-01-21T06:40:25.822Z,90.70
2023-01-21T06:45:28.371Z,90.62
2023-01-21T06:50:30.461Z,90.53
2023-01-21T06:55:32.505Z,90.45
2023-01-21T07:00:34.568Z,90.56
2023-01-21T07:05:36.944Z,90.50
2023-01-21T07:10:38.991Z,90.62
2023-01-21T07:15:41.202Z,90.62
2023-01-21T07:20:43.370Z,90.59
2023-01-21T07:25:45.834Z,90.86
2023-01-21T07:30:48.522Z,90.98
2023-01-21T07:35:51.186Z,90.74
2023-01-21T07:40:53.264Z,90.59
2023-01-21T07:45:58.002Z,90.42
2023-01-21T07:51:02.046Z,90.02
2023-01-21T07:56:06.316Z,89.87
2023-01-21T08:01:09.580Z,89.86
2023-01-21T08:06:12.124Z,89.93
2023-01-21T08:11:14.332Z,89.78
2023-01-21T08:16:16.775Z,89.77
2023-01-21T08:21:20.905Z,89.72
2023-01-21T08:26:25.561Z,89.34
2023-01-21T08:31:27.916Z,89.07
2023-01-21T08:36:30.026Z,88.70
2023-01-21T08:41:33.096Z,88.75
2023-01-21T08:46:35.162Z,88.65
2023-01-21T08:51:37.264Z,88.48
2023-01-21T08:56:39.323Z,88.85
2023-01-21T09:01:41.420Z,88.77
2023-01-21T09:06:43.472Z,88.88
2023-01-21T09:11:45.610Z,88.72
2023-01-21T09:16:49.564Z,88.56
2023-01-21T09:21:55.604Z,88.49
2023-01-21T09:26:57.682Z,88.59
2023-01-21T09:32:00.233Z,88.27
2023-01-21T09:37:03.129Z,88.43
2023-01-21T09:42:05.282Z,88.22
2023-01-21T09:47:28.373Z,88.17
2023-01-21T09:52:37.841Z,87.70
2023-01-21T09:57:52.245Z,87.31
2023-01-21T10:03:12.474Z,87.20
2023-01-21T10:08:40.158Z,87.74
2023-01-21T10:14:10.390Z,87.38
2023-01-21T10:19:18.512Z,87.05
2023-01-21T10:24:35.345Z,86.91
2023-01-21T10:29:41.623Z,87.07
2023-01-21T10:34:51.496Z,87.01
2023-01-21T10:39:59.580Z,86.73
2023-01-21T10:45:34.089Z,86.89
2023-01-21T10:50:44.968Z,86.72
2023-01-21T10:56:00.575Z,86.97
2023-01-21T11:01:07.192Z,87.47
2023-01-21T11:06:12.548Z,87.31
2023-01-21T11:11:27.105Z,87.14
2023-01-21T11:16:32.388Z,87.59
2023-01-21T11:21:34.547Z,87.54
2023-01-21T11:26:37.166Z,87.54
2023-01-21T11:31:41.146Z,87.30
2023-01-21T11:37:02.804Z,86.95
2023-01-21T11:42:08.198Z,86.36
2023-01-21T11:47:28.236Z,85.79
2023-01-21T11:52:30.315Z,85.02
2023-01-21T11:57:33.563Z,84.53
2023-01-21T12:02:43.920Z,83.75
2023-01-21T12:07:51.103Z,82.33
2023-01-21T12:13:17.114Z,82.42
2023-01-21T12:18:21.956Z,82.50
2023-01-21T12:23:42.919Z,82.86
2023-01-21T12:34:29.117Z,83.78
2023-01-21T12:39:38.338Z,84.22
2023-01-21T12:44:50.756Z,84.38
2023-01-21T12:50:03.636Z,84.57
2023-01-21T12:55:24.379Z,84.41
2023-01-21T13:00:31.997Z,83.94
2023-01-21T13:05:52.569Z,83.97
2023-01-21T13:11:01.344Z,84.28
2023-01-21T13:16:08.037Z,83.94
2023-01-21T13:21:45.628Z,83.95
2023-01-21T13:26:55.842Z,84.37
2023-01-21T13:32:10.408Z,84.86
2023-01-21T13:37:44.996Z,84.86
2023-01-21T13:42:55.744Z,85.48
2023-01-21T13:48:26.698Z,85.65
2023-01-21T13:53:47.525Z,86.44
2023-01-21T13:58:59.071Z,86.39
2023-01-21T14:04:07.034Z,86.46
2023-01-21T14:09:30.507Z,86.39
2023-01-21T14:14:53.677Z,85.98
2023-01-21T14:20:04.757Z,86.04
2023-01-21T14:25:28.112Z,86.31
2023-01-21T14:30:40.184Z,86.64
2023-01-21T14:35:48.708Z,86.83
2023-01-21T14:41:03.443Z,86.40
2023-01-21T14:46:23.475Z,86.43
2023-01-21T14:51:27.304Z,87.06
2023-01-21T14:56:32.842Z,87.43
2023-01-21T15:01:45.873Z,87.57
2023-01-21T15:06:51.929Z,87.41
2023-01-21T15:12:00.023Z,87.89
2023-01-21T15:17:02.582Z,88.22
2023-01-21T15:22:21.353Z,88.57
2023-01-21T15:27:28.229Z,88.87
2023-01-21T15:32:38.051Z,89.03
2023-01-21T15:37:44.047Z,89.11
2023-01-21T15:43:00.578Z,89.00
2023-01-21T15:48:11.336Z,87.50
2023-01-21T15:53:42.489Z,87.46
2023-01-21T15:59:15.318Z,87.88
2023-01-21T16:04:52.934Z,88.01
2023-01-21T16:10:20.638Z,88.12
2023-01-21T16:15:25.362Z,88.19
2023-01-21T16:20:27.704Z,88.55
2023-01-21T16:25:29.930Z,88.60
2023-01-21T16:30:32.288Z,88.67
2023-01-21T16:35:51.963Z,88.67
2023-01-21T16:41:12.600Z,88.54
2023-01-21T16:46:17.467Z,88.35
2023-01-21T16:51:23.797Z,88.53
2023-01-21T16:56:29.357Z,88.70
2023-01-21T17:01:32.126Z,89.01
2023-01-21T17:06:34.348Z,88.41
2023-01-21T17:11:44.567Z,88.46
2023-01-21T17:16:46.806Z,88.13
2023-01-21T17:21:55.467Z,88.09
2023-01-21T17:27:09.904Z,88.17
2023-01-21T17:32:32.023Z,88.39
2023-01-21T17:37:58.827Z,88.70
2023-01-21T17:43:15.342Z,88.14
2023-01-21T17:48:28.803Z,88.09
2023-01-21T17:53:34.070Z,87.99
2023-01-21T17:58:45.826Z,87.97
2023-01-21T18:03:48.011Z,87.66
2023-01-21T18:08:50.993Z,87.74
2023-01-21T18:13:53.104Z,87.70
2023-01-21T18:18:55.501Z,87.64
2023-01-21T18:23:57.756Z,87.46
2023-01-21T18:28:59.945Z,87.20
2023-01-21T18:34:02.071Z,87.03
2023-01-21T18:39:04.232Z,87.09
2023-01-21T18:44:06.514Z,86.83
2023-01-21T18:49:18.048Z,86.91
2023-01-21T18:54:20.136Z,86.93
2023-01-21T18:59:23.049Z,87.09
2023-01-21T19:04:25.160Z,86.74
2023-01-21T19:09:27.207Z,86.72
2023-01-21T19:14:29.371Z,86.79
2023-01-21T19:19:31.447Z,86.66
2023-01-21T19:24:33.523Z,86.66
2023-01-21T19:29:35.630Z,86.75
2023-01-21T19:34:37.669Z,86.68
2023-01-21T19:39:39.899Z,85.95
2023-01-21T19:44:42.436Z,86.13
2023-01-21T19:49:45.755Z,86.16
2023-01-21T19:54:47.869Z,86.51
2023-01-21T19:59:52.919Z,86.30
2023-01-21T20:04:55.122Z,86.71
2023-01-21T20:09:57.344Z,87.17
2023-01-21T20:14:59.447Z,87.08
2023-01-21T20:20:03.046Z,87.12
2023-01-21T20:25:05.689Z,87.40
2023-01-21T20:30:16.564Z,87.50
2023-01-21T20:35:20.245Z,87.83
2023-01-21T20:40:28.410Z,87.91
2023-01-21T20:45:34.332Z,88.02
2023-01-21T20:50:36.790Z,88.02
2023-01-21T20:55:39.958Z,87.88
2023-01-21T21:00:44.804Z,87.79
2023-01-21T21:05:49.011Z,88.09
2023-01-21T21:10:52.816Z,87.97
2023-01-21T21:15:55.006Z,87.65
2023-01-21T21:20:57.086Z,87.81
2023-01-21T21:25:59.148Z,87.88
2023-01-21T21:31:01.483Z,87.62
2023-01-21T21:36:03.856Z,87.64
2023-01-21T21:41:24.899Z,87.62
2023-01-21T21:46:46.260Z,87.50
2023-01-21T21:51:48.342Z,87.65
2023-01-21T21:56:50.644Z,87.41
2023-01-21T22:01:52.815Z,87.06
2023-01-21T22:06:54.905Z,87.29
2023-01-21T22:11:57.018Z,87.40
2023-01-21T22:16:59.393Z,87.12
2023-01-21T22:22:01.492Z,87.24
2023-01-21T22:27:03.720Z,87.28
2023-01-21T22:32:06.280Z,86.86
2023-01-21T22:37:08.389Z,87.07
2023-01-21T22:42:10.466Z,87.25
2023-01-21T22:47:12.553Z,87.03
2023-01-21T22:52:15.173Z,87.08
2023-01-21T22:57:17.278Z,87.18
2023-01-21T23:02:19.459Z,87.11
2023-01-21T23:07:21.531Z,87.19
2023-01-21T23:12:23.999Z,87.19
2023-01-21T23:17:26.069Z,87.33
2023-01-21T23:22:28.124Z,87.32
2023-01-21T23:27:30.156Z,87.12
2023-01-21T23:32:32.199Z,87.16
2023-01-21T23:37:34.323Z,87.02
2023-01-21T23:42:36.473Z,86.88
2023-01-21T23:47:38.548Z,86.77
2023-01-21T23:52:41.917Z,86.59
2023-01-21T23:57:44.180Z,86.82
